Time;durP1;ratioP1;P1;durP2;ratioP2;P2;SDS_P1;SDS_P2;PMS_P1;PMS_P2;Temp;Humidity;BMP_temperature;BMP_pressure;BME280_temperature;BME280_humidity;BME280_pressure;Samples;Min_cycle;Max_cycle;Signal;HPM_P1;HPM_P2
2022/11/05 00:10:37;;;;;;;52.60;48.92;;;7.20;99.90;;;;;;5052293;28;20098;-74
2022/11/05 00:18:32;;;;;;;50.03;46.72;;;7.40;99.90;;;;;;5060688;28;20090;-75
2022/11/05 00:20:57;;;;;;;48.30;45.20;;;7.40;99.90;;;;;;5056921;28;20437;-76
2022/11/05 00:26:10;;;;;;;49.95;46.85;;;7.40;99.90;;;;;;5065305;28;20036;-73
2022/11/05 00:28:36;;;;;;;51.90;48.40;;;7.50;99.90;;;;;;5062756;28;20048;-73
2022/11/05 00:31:04;;;;;;;50.90;47.53;;;7.50;99.90;;;;;;5053205;28;20057;-73
2022/11/05 00:33:30;;;;;;;51.40;48.17;;;7.90;99.90;;;;;;5063328;28;20016;-74
2022/11/05 00:35:56;;;;;;;49.88;46.25;;;7.50;99.90;;;;;;5057789;28;20082;-74
2022/11/05 00:38:21;;;;;;;45.50;42.35;;;7.50;99.90;;;;;;5059592;28;20024;-73
2022/11/05 00:40:47;;;;;;;48.40;45.10;;;7.40;99.90;;;;;;5064905;28;20013;-73
2022/11/05 00:45:57;;;;;;;46.95;43.80;;;7.40;99.90;;;;;;5058308;28;20059;-74
2022/11/05 00:51:07;;;;;;;44.08;41.15;;;7.40;99.90;;;;;;5061999;28;20394;-73
2022/11/05 00:53:32;;;;;;;45.42;42.35;;;7.30;99.90;;;;;;5063203;28;20028;-74
2022/11/05 00:55:59;;;;;;;44.78;42.05;;;7.30;99.90;;;;;;5065687;28;20099;-74
2022/11/05 00:58:26;;;;;;;42.15;39.63;;;7.40;99.90;;;;;;5073601;28;20024;-73
2022/11/05 01:00:59;;;;;;;44.78;41.88;;;7.40;99.90;;;;;;5064822;28;20020;-72
2022/11/05 01:03:28;;;;;;;45.67;42.58;;;7.40;99.90;;;;;;5060489;28;20112;-73
2022/11/05 01:06:04;;;;;;;46.78;43.97;;;7.40;99.90;;;;;;5064167;28;20037;-73
2022/11/05 01:08:29;;;;;;;;;;;7.50;99.90;;;;;;5068650;28;20017;-73
2022/11/05 01:10:57;;;;;;;52.33;48.53;;;7.40;99.90;;;;;;5068781;28;19908;-74
2022/11/05 01:13:26;;;;;;;46.92;43.42;;;7.30;99.90;;;;;;5055028;28;20021;-74
2022/11/05 01:15:52;;;;;;;46.78;43.67;;;7.10;99.90;;;;;;5068062;28;20032;-74
2022/11/05 01:18:19;;;;;;;45.75;42.88;;;7.20;99.90;;;;;;5062083;28;20021;-73
2022/11/05 01:20:45;;;;;;;46.83;43.92;;;7.20;99.90;;;;;;5060428;28;20503;-73
2022/11/05 01:23:11;;;;;;;48.85;45.95;;;7.20;99.90;;;;;;5054808;28;20033;-73
2022/11/05 01:25:37;;;;;;;46.13;43.05;;;7.30;99.90;;;;;;5054511;28;20036;-74
2022/11/05 01:28:03;;;;;;;45.47;42.60;;;7.30;99.90;;;;;;5054411;28;20033;-74
2022/11/05 01:30:30;;;;;;;49.53;46.22;;;7.40;99.90;;;;;;5053215;28;20124;-74
2022/11/05 01:32:56;;;;;;;48.67;45.08;;;7.30;99.90;;;;;;5055011;28;20036;-75
2022/11/05 01:35:21;;;;;;;49.53;45.80;;;7.10;99.90;;;;;;5067992;28;20029;-74
2022/11/05 01:37:47;;;;;;;43.67;40.95;;;7.00;99.90;;;;;;5070964;28;20107;-75
2022/11/05 01:40:17;;;;;;;46.20;43.50;;;7.10;99.90;;;;;;5061008;28;20025;-74
2022/11/05 01:42:43;;;;;;;48.38;45.40;;;7.10;99.90;;;;;;5065879;28;20028;-74
2022/11/05 01:45:24;;;;;;;50.58;47.15;;;7.20;99.90;;;;;;5069800;28;20032;-74
2022/11/05 01:48:28;;;;;;;47.22;44.20;;;7.00;99.90;;;;;;5072682;28;20039;-73
2022/11/05 01:50:59;;;;;;;49.85;46.42;;;7.00;99.90;;;;;;5072662;28;20575;-74
2022/11/05 01:53:30;;;;;;;46.13;43.10;;;7.10;99.90;;;;;;5074153;28;20035;-73
2022/11/05 01:56:13;;;;;;;49.67;46.47;;;7.10;99.90;;;;;;5074069;28;20051;-74
2022/11/05 01:58:50;;;;;;;44.63;41.72;;;7.10;99.90;;;;;;5073706;28;20047;-73
2022/11/05 02:01:16;;;;;;;41.42;38.63;;;7.10;99.90;;;;;;5074135;28;20024;-73
2022/11/05 02:03:43;;;;;;;44.17;41.15;;;7.00;99.90;;;;;;5063645;28;20024;-74
2022/11/05 02:06:09;;;;;;;46.88;43.70;;;6.90;99.90;;;;;;5053893;28;20483;-74
2022/11/05 02:08:52;;;;;;;49.47;45.83;;;6.90;99.90;;;;;;5056457;28;20107;-74
2022/11/05 02:11:19;;;;;;;48.92;45.10;;;6.80;99.90;;;;;;5057266;28;20021;-73
2022/11/05 02:13:46;;;;;;;42.78;39.60;;;6.80;99.90;;;;;;5052627;28;20121;-73
2022/11/05 02:16:38;;;;;;;44.63;41.53;;;6.70;99.90;;;;;;5069670;28;20056;-73
2022/11/05 02:19:40;;;;;;;45.35;42.38;;;6.70;99.90;;;;;;5072179;28;20390;-72
2022/11/05 02:22:36;;;;;;;45.90;42.90;;;6.70;99.90;;;;;;5061999;28;20018;-73
2022/11/05 02:25:26;;;;;;;44.00;40.97;;;6.70;99.90;;;;;;5055971;28;20387;-74
2022/11/05 02:28:31;;;;;;;46.42;43.53;;;6.60;99.90;;;;;;5050047;28;20017;-74
2022/11/05 02:31:08;;;;;;;43.95;41.25;;;6.60;99.90;;;;;;5052207;28;20021;-73
2022/11/05 02:34:02;;;;;;;42.58;39.80;;;6.70;99.90;;;;;;5052218;28;20021;-72
2022/11/05 02:36:39;;;;;;;43.63;41.00;;;6.60;99.90;;;;;;5060163;28;20032;-72
2022/11/05 02:39:36;;;;;;;47.30;44.58;;;6.50;99.90;;;;;;5071972;28;20020;-73
2022/11/05 02:42:16;;;;;;;41.13;38.83;;;6.50;99.90;;;;;;5043711;28;20573;-72
2022/11/05 02:45:12;;;;;;;49.08;45.97;;;6.50;99.90;;;;;;5053331;28;20024;-72
2022/11/05 02:47:54;;;;;;;47.78;44.58;;;6.60;99.90;;;;;;5060494;28;20052;-72
2022/11/05 02:50:57;;;;;;;46.28;43.33;;;6.40;99.90;;;;;;5073110;28;20056;-72
2022/11/05 02:53:46;;;;;;;51.83;47.42;;;6.40;99.90;;;;;;5039238;28;20037;-72
2022/11/05 02:56:20;;;;;;;54.55;50.22;;;6.40;99.90;;;;;;5051830;28;20518;-72
2022/11/05 02:58:46;;;;;;;56.13;50.75;;;6.30;99.90;;;;;;5051324;28;20086;-72
2022/11/05 03:01:12;;;;;;;46.95;43.25;;;6.20;99.90;;;;;;5052999;28;20387;-72
2022/11/05 03:03:48;;;;;;;46.90;43.53;;;6.20;99.90;;;;;;5052958;28;20017;-72
2022/11/05 03:06:52;;;;;;;45.60;42.75;;;6.30;99.90;;;;;;5052784;28;20458;-72
2022/11/05 03:09:28;;;;;;;48.30;45.50;;;6.50;99.90;;;;;;5061907;28;20052;-72
2022/11/05 03:12:06;;;;;;;43.55;40.67;;;6.60;99.90;;;;;;5072785;28;20047;-71
2022/11/05 03:14:43;;;;;;;45.72;42.88;;;6.80;99.90;;;;;;5072756;28;20036;-72
2022/11/05 03:17:19;;;;;;;49.83;46.53;;;6.90;99.90;;;;;;5072582;28;20037;-72
2022/11/05 03:19:56;;;;;;;48.42;45.00;;;6.90;99.90;;;;;;5077573;28;20015;-72
2022/11/05 03:22:27;;;;;;;44.47;41.72;;;6.90;99.90;;;;;;5075276;28;20053;-72
2022/11/05 03:25:16;;;;;;;47.33;44.13;;;6.90;99.90;;;;;;5077231;28;20040;-74
2022/11/05 03:27:45;;;;;;;49.88;46.55;;;7.00;99.90;;;;;;5067802;28;20025;-74
2022/11/05 03:30:12;;;;;;;47.83;44.53;;;7.10;99.90;;;;;;5067878;28;20028;-73
2022/11/05 03:32:46;;;;;;;45.63;42.63;;;7.00;99.90;;;;;;5065135;28;20029;-73
2022/11/05 03:35:17;;;;;;;50.75;47.53;;;7.10;99.90;;;;;;5064365;28;20076;-73
2022/11/05 03:37:47;;;;;;;46.40;43.55;;;7.00;99.90;;;;;;5057912;28;20107;-72
2022/11/05 03:40:15;;;;;;;48.47;45.00;;;7.00;99.90;;;;;;5054182;28;20043;-72
2022/11/05 03:42:46;;;;;;;47.08;43.90;;;7.00;99.90;;;;;;5053807;28;20021;-72
2022/11/05 03:45:19;;;;;;;47.30;44.20;;;7.10;99.90;;;;;;5066821;28;20020;-72
2022/11/05 03:47:49;;;;;;;49.20;45.40;;;7.00;99.90;;;;;;5052839;28;20021;-72
2022/11/05 03:50:36;;;;;;;43.67;40.92;;;7.00;99.90;;;;;;5052814;28;20023;-72
2022/11/05 03:53:18;;;;;;;43.65;40.83;;;7.00;99.90;;;;;;5052692;28;20450;-72
2022/11/05 03:55:59;;;;;;;48.30;45.05;;;7.00;99.90;;;;;;5058856;28;20031;-72
2022/11/05 03:58:25;;;;;;;50.50;46.67;;;7.00;99.90;;;;;;5071706;28;20024;-72
2022/11/05 04:00:52;;;;;;;50.00;45.95;;;7.00;99.90;;;;;;5070528;28;20036;-71
2022/11/05 04:03:17;;;;;;;43.47;40.28;;;6.80;99.90;;;;;;5077227;28;20037;-73
2022/11/05 04:05:43;;;;;;;51.50;47.60;;;6.90;99.90;;;;;;5070265;28;20086;-73
2022/11/05 04:13:37;;;;;;;46.33;43.30;;;6.90;99.90;;;;;;5051890;28;20039;-72
2022/11/05 04:18:47;;;;;;;46.88;43.42;;;7.20;99.90;;;;;;5071395;28;20074;-75
2022/11/05 04:24:08;;;;;;;46.83;43.70;;;7.30;99.90;;;;;;5051669;28;20032;-73
2022/11/05 04:26:39;;;;;;;47.50;44.40;;;7.30;99.90;;;;;;5076854;28;20029;-74
2022/11/05 04:31:50;;;;;;;45.80;43.00;;;7.30;99.90;;;;;;5051294;28;20036;-73
2022/11/05 04:34:17;;;;;;;43.85;41.15;;;7.30;99.90;;;;;;5051263;28;20130;-73
2022/11/05 04:36:48;;;;;;;44.67;41.83;;;7.30;99.90;;;;;;5062540;28;20564;-74
2022/11/05 04:39:17;;;;;;;43.83;40.80;;;7.20;99.90;;;;;;5050113;28;20032;-72
2022/11/05 04:41:44;;;;;;;50.08;46.55;;;7.20;99.90;;;;;;5082544;28;20024;-71
2022/11/05 04:44:09;;;;;;;45.83;42.78;;;7.20;99.90;;;;;;5051246;28;20044;-71
2022/11/05 04:46:35;;;;;;;38.33;35.65;;;7.10;99.90;;;;;;5051298;28;20056;-72
2022/11/05 04:49:00;;;;;;;53.95;49.90;;;7.10;99.90;;;;;;5057581;28;20496;-73
2022/11/05 04:51:26;;;;;;;50.17;46.55;;;7.10;99.90;;;;;;5084108;28;20093;-72
2022/11/05 04:53:53;;;;;;;50.22;46.75;;;7.20;99.90;;;;;;5058063;28;20098;-72
2022/11/05 04:56:21;;;;;;;50.85;46.97;;;7.20;99.90;;;;;;5056727;28;20064;-72
2022/11/05 04:58:47;;;;;;;52.60;48.97;;;7.30;99.90;;;;;;5057867;28;20024;-72
2022/11/05 05:01:20;;;;;;;51.05;47.08;;;7.30;99.90;;;;;;5057933;28;20024;-73
2022/11/05 05:03:47;;;;;;;56.38;51.83;;;7.30;99.90;;;;;;5054217;28;20120;-73
2022/11/05 05:06:13;;;;;;;86.88;56.80;;;7.20;99.90;;;;;;5064579;28;20017;-75
2022/11/05 05:08:39;;;;;;;57.45;51.33;;;7.20;99.90;;;;;;5054846;28;20526;-74
2022/11/05 05:11:07;;;;;;;54.28;49.65;;;7.20;99.90;;;;;;5051086;28;20026;-74
2022/11/05 05:13:33;;;;;;;49.97;46.17;;;7.00;99.90;;;;;;5062948;28;20021;-75
2022/11/05 05:15:58;;;;;;;53.05;48.40;;;7.00;99.90;;;;;;5064319;28;20024;-75
2022/11/05 05:18:25;;;;;;;55.03;50.35;;;6.80;99.90;;;;;;5057920;28;20029;-73
2022/11/05 05:23:39;;;;;;;94.65;56.33;;;6.90;99.90;;;;;;5059701;28;20518;-73
2022/11/05 05:26:05;;;;;;;59.58;52.45;;;6.90;99.90;;;;;;5054589;28;20037;-72
2022/11/05 05:28:30;;;;;;;114.35;64.82;;;6.90;99.90;;;;;;5059201;28;20021;-72
2022/11/05 05:30:58;;;;;;;106.03;59.83;;;6.90;99.90;;;;;;5064494;28;20481;-72
2022/11/05 05:33:24;;;;;;;103.82;61.85;;;6.90;99.90;;;;;;5062398;28;20470;-72
2022/11/05 05:35:50;;;;;;;133.18;67.75;;;6.90;99.90;;;;;;5057225;28;20047;-73
2022/11/05 05:38:15;;;;;;;162.95;69.65;;;6.90;99.90;;;;;;5059240;28;20083;-72
2022/11/05 05:40:41;;;;;;;147.50;71.40;;;6.90;99.90;;;;;;5062937;28;20021;-72
2022/11/05 05:43:06;;;;;;;115.13;71.80;;;6.90;99.90;;;;;;5050815;28;20060;-72
2022/11/05 05:45:34;;;;;;;188.45;70.07;;;6.90;99.90;;;;;;5057971;28;20103;-73
2022/11/05 05:47:59;;;;;;;160.82;65.45;;;6.80;99.90;;;;;;5063318;28;20758;-72
2022/11/05 05:50:25;;;;;;;153.07;58.97;;;6.90;99.90;;;;;;5066256;28;20120;-73
2022/11/05 05:52:51;;;;;;;288.38;74.82;;;6.90;99.90;;;;;;5065112;28;20035;-73
2022/11/05 05:55:16;;;;;;;242.93;71.72;;;6.90;99.90;;;;;;5060677;28;20035;-74
2022/11/05 05:57:42;;;;;;;136.00;62.08;;;6.90;99.90;;;;;;5063561;28;20059;-72
2022/11/05 06:00:08;;;;;;;178.93;68.03;;;7.00;99.90;;;;;;5067501;28;20029;-72
2022/11/05 06:02:33;;;;;;;104.55;66.00;;;7.00;99.90;;;;;;5064231;28;20024;-74
2022/11/05 06:04:59;;;;;;;189.07;79.45;;;7.00;99.90;;;;;;5060659;28;20020;-74
2022/11/05 06:07:24;;;;;;;156.40;72.72;;;7.00;99.90;;;;;;5063543;28;20040;-74
2022/11/05 06:09:50;;;;;;;217.90;126.28;;;6.80;99.90;;;;;;5053978;28;20478;-74
2022/11/05 06:12:15;;;;;;;177.38;114.60;;;6.90;99.90;;;;;;5065011;28;20070;-74
2022/11/05 06:14:41;;;;;;;173.75;83.40;;;6.90;99.90;;;;;;5060652;28;20078;-73
2022/11/05 06:17:06;;;;;;;227.38;91.40;;;7.00;99.90;;;;;;5062806;28;20036;-75
2022/11/05 06:19:32;;;;;;;178.23;77.03;;;7.00;99.90;;;;;;5056663;28;20024;-74
2022/11/05 06:21:57;;;;;;;148.77;86.35;;;6.90;99.90;;;;;;5062985;28;20024;-74
2022/11/05 06:24:23;;;;;;;138.68;72.30;;;6.90;99.90;;;;;;5069774;28;20020;-75
2022/11/05 06:26:49;;;;;;;223.13;72.53;;;7.00;99.90;;;;;;5061723;28;20076;-75
2022/11/05 06:29:14;;;;;;;182.15;67.32;;;7.00;99.90;;;;;;5057454;28;20032;-74
2022/11/05 06:31:40;;;;;;;140.75;68.68;;;7.00;99.90;;;;;;5063351;28;20025;-73
2022/11/05 06:34:06;;;;;;;224.30;68.28;;;6.80;99.90;;;;;;5069405;28;20031;-74
2022/11/05 06:36:31;;;;;;;228.27;70.07;;;6.80;99.90;;;;;;5072061;28;20060;-73
2022/11/05 06:38:57;;;;;;;166.93;62.25;;;6.80;99.90;;;;;;5069976;28;20029;-73
2022/11/05 06:41:22;;;;;;;144.15;60.38;;;6.70;99.90;;;;;;5063346;28;20025;-74
2022/11/05 06:43:48;;;;;;;260.30;68.00;;;6.70;99.90;;;;;;5059903;28;20108;-73
2022/11/05 06:46:13;;;;;;;211.95;69.78;;;6.70;99.90;;;;;;5057352;28;20048;-74
2022/11/05 06:48:39;;;;;;;200.13;68.35;;;6.80;99.90;;;;;;5066505;28;20028;-74
2022/11/05 06:51:06;;;;;;;222.13;78.38;;;6.80;99.90;;;;;;5069515;28;20105;-74
2022/11/05 06:53:32;;;;;;;229.45;91.43;;;6.90;99.90;;;;;;5068773;28;20548;-73
2022/11/05 06:56:04;;;;;;;175.07;75.30;;;6.80;99.90;;;;;;5060905;28;20074;-73
2022/11/05 06:58:31;;;;;;;272.73;133.05;;;6.80;99.90;;;;;;5067700;28;20039;-73
2022/11/05 07:01:07;;;;;;;171.13;81.60;;;6.90;99.90;;;;;;5059096;28;20044;-74
2022/11/05 07:03:34;;;;;;;322.98;112.53;;;6.90;99.90;;;;;;5066566;28;20029;-74
2022/11/05 07:06:01;;;;;;;240.48;115.97;;;7.00;99.90;;;;;;5051497;28;20087;-74
2022/11/05 07:08:31;;;;;;;312.77;102.20;;;7.10;99.90;;;;;;5066637;28;20025;-73
2022/11/05 07:10:57;;;;;;;120.18;63.95;;;7.10;99.90;;;;;;5072433;28;20108;-73
2022/11/05 07:13:23;;;;;;;150.93;67.25;;;7.00;99.90;;;;;;5052697;28;20048;-73
2022/11/05 07:15:48;;;;;;;107.70;60.58;;;7.10;99.90;;;;;;5052589;28;20440;-73
2022/11/05 07:18:14;;;;;;;123.50;64.53;;;7.10;99.90;;;;;;5064934;28;20032;-74
2022/11/05 07:20:39;;;;;;;106.40;62.50;;;7.10;99.90;;;;;;5051293;28;20029;-74
2022/11/05 07:23:08;;;;;;;115.03;62.92;;;7.10;99.90;;;;;;5052415;28;20032;-73
2022/11/05 07:25:34;;;;;;;101.88;61.83;;;7.10;99.90;;;;;;5052384;28;20024;-73
2022/11/05 07:28:01;;;;;;;116.05;62.42;;;7.30;99.90;;;;;;5064146;28;20033;-73
2022/11/05 07:30:27;;;;;;;105.55;62.75;;;7.20;99.90;;;;;;5058550;28;20534;-73
2022/11/05 07:32:53;;;;;;;121.93;63.42;;;7.20;99.90;;;;;;5052838;28;20036;-74
2022/11/05 07:35:18;;;;;;;114.45;60.72;;;7.10;99.90;;;;;;5065793;28;20024;-75
2022/11/05 07:37:46;;;;;;;100.72;59.55;;;7.00;99.90;;;;;;5051920;28;20495;-74
2022/11/05 07:40:13;;;;;;;103.63;60.60;;;7.10;99.90;;;;;;5065788;28;20017;-73
2022/11/05 07:42:50;;;;;;;67.35;52.90;;;7.10;99.90;;;;;;5059266;28;20016;-73
2022/11/05 07:45:16;;;;;;;63.08;52.88;;;7.10;99.90;;;;;;5057506;28;20020;-74
2022/11/05 07:47:50;;;;;;;71.45;55.17;;;7.20;99.90;;;;;;5063140;28;20489;-73
2022/11/05 07:50:17;;;;;;;65.97;54.75;;;7.20;99.90;;;;;;5064252;28;20035;-74
2022/11/05 07:52:43;;;;;;;63.42;56.78;;;7.20;99.90;;;;;;5055378;28;20025;-75
2022/11/05 07:55:10;;;;;;;55.67;50.25;;;7.40;99.90;;;;;;5058405;28;20025;-73
2022/11/05 07:57:43;;;;;;;61.40;55.53;;;7.50;99.90;;;;;;5062228;28;20025;-74
2022/11/05 08:00:11;;;;;;;58.13;53.03;;;7.60;99.90;;;;;;5065332;28;20023;-74
2022/11/05 08:02:37;;;;;;;64.25;58.35;;;7.50;99.90;;;;;;5061112;28;20454;-76
2022/11/05 08:05:03;;;;;;;61.60;56.13;;;7.70;99.90;;;;;;5058695;28;20092;-75
2022/11/05 08:07:28;;;;;;;67.15;58.47;;;7.70;99.90;;;;;;5060444;28;20507;-75
2022/11/05 08:09:54;;;;;;;62.85;56.60;;;7.80;99.90;;;;;;5051782;28;20031;-75
2022/11/05 08:12:19;;;;;;;68.65;61.42;;;7.80;99.90;;;;;;5062174;28;20028;-74
2022/11/05 08:14:45;;;;;;;64.68;58.00;;;7.90;99.90;;;;;;5065453;28;20024;-75
2022/11/05 08:17:10;;;;;;;76.75;63.90;;;7.80;99.90;;;;;;5066362;28;20047;-75
2022/11/05 08:19:36;;;;;;;90.95;64.00;;;7.90;99.90;;;;;;5063900;28;20047;-76
2022/11/05 08:22:01;;;;;;;75.43;60.00;;;7.70;99.90;;;;;;5060461;28;20032;-75
2022/11/05 08:24:27;;;;;;;81.25;64.30;;;7.70;99.90;;;;;;5065251;28;20395;-74
2022/11/05 08:26:52;;;;;;;72.32;61.75;;;7.70;99.90;;;;;;5062397;28;20029;-75
2022/11/05 08:29:18;;;;;;;80.35;62.30;;;7.80;99.90;;;;;;5058025;28;20406;-75
2022/11/05 08:31:43;;;;;;;103.90;69.05;;;7.70;99.90;;;;;;5060831;28;20032;-75
2022/11/05 08:34:09;;;;;;;81.70;66.45;;;7.80;99.90;;;;;;5055805;28;20044;-74
2022/11/05 08:36:35;;;;;;;74.80;66.35;;;7.80;99.90;;;;;;5060660;28;20029;-74
2022/11/05 08:39:00;;;;;;;66.65;59.50;;;7.80;99.90;;;;;;5063751;28;20117;-74
2022/11/05 08:41:26;;;;;;;62.15;56.00;;;8.00;99.90;;;;;;5061119;28;20047;-74
2022/11/05 08:43:55;;;;;;;68.60;61.78;;;8.10;99.90;;;;;;5057837;28;20021;-74
2022/11/05 08:46:21;;;;;;;70.32;63.10;;;8.20;99.90;;;;;;5060594;28;20411;-74
2022/11/05 08:48:46;;;;;;;70.80;63.80;;;8.10;99.90;;;;;;5063331;28;20040;-75
2022/11/05 08:51:12;;;;;;;59.28;53.35;;;8.20;99.90;;;;;;5062275;28;20482;-74
2022/11/05 08:53:38;;;;;;;57.25;51.33;;;8.30;99.90;;;;;;5054893;28;20064;-74
2022/11/05 08:56:03;;;;;;;64.28;57.45;;;8.50;99.90;;;;;;5068814;28;20052;-74
2022/11/05 08:58:29;;;;;;;59.58;53.67;;;8.60;99.90;;;;;;5064523;28;20036;-75
2022/11/05 09:00:55;;;;;;;48.42;43.25;;;8.50;99.90;;;;;;5061692;28;20044;-74
2022/11/05 09:03:20;;;;;;;49.75;44.70;;;8.60;99.90;;;;;;5056937;28;20021;-75
2022/11/05 09:05:46;;;;;;;47.67;42.53;;;8.60;99.90;;;;;;5061187;28;20021;-75
2022/11/05 09:08:15;;;;;;;41.03;36.75;;;8.60;99.90;;;;;;5064543;28;20032;-75
2022/11/05 09:10:41;;;;;;;39.33;31.58;;;8.70;99.90;;;;;;5051230;28;20033;-74
2022/11/05 09:13:08;;;;;;;38.95;34.80;;;8.70;99.90;;;;;;5064655;28;20025;-74
2022/11/05 09:15:34;;;;;;;44.25;39.58;;;8.80;99.90;;;;;;5061386;28;20032;-74
2022/11/05 09:18:01;;;;;;;45.70;41.17;;;8.70;99.90;;;;;;5055967;28;20058;-75
2022/11/05 09:20:27;;;;;;;48.00;43.13;;;8.80;99.90;;;;;;5062902;28;20028;-75
2022/11/05 09:22:53;;;;;;;47.10;41.85;;;8.70;99.90;;;;;;5068275;28;20027;-75
2022/11/05 09:25:18;;;;;;;44.80;40.58;;;8.70;99.90;;;;;;5066523;28;20505;-74
2022/11/05 09:27:44;;;;;;;62.28;52.03;;;8.70;99.90;;;;;;5056340;28;20032;-74
2022/11/05 09:30:11;;;;;;;49.83;44.67;;;8.80;99.90;;;;;;5065030;28;20486;-75
2022/11/05 09:32:36;;;;;;;44.75;40.25;;;8.80;99.90;;;;;;5061401;28;20028;-75
2022/11/05 09:35:02;;;;;;;40.95;36.47;;;8.90;99.90;;;;;;5068795;28;20559;-75
2022/11/05 09:37:28;;;;;;;42.22;35.97;;;8.80;99.90;;;;;;5074178;28;20040;-75
2022/11/05 09:39:54;;;;;;;40.63;36.25;;;9.00;99.90;;;;;;5063377;28;20029;-75
2022/11/05 09:42:23;;;;;;;32.72;29.23;;;9.20;99.90;;;;;;5066615;28;20513;-75
2022/11/05 09:44:58;;;;;;;33.60;28.17;;;9.30;99.90;;;;;;5066289;28;20051;-75
2022/11/05 09:47:34;;;;;;;28.02;23.55;;;9.40;99.90;;;;;;5054477;28;20386;-75
2022/11/05 09:50:05;;;;;;;26.88;21.33;;;9.40;99.90;;;;;;5068220;28;20029;-75
2022/11/05 09:52:32;;;;;;;28.08;21.85;;;9.30;99.90;;;;;;5064713;28;20028;-75
2022/11/05 09:54:58;;;;;;;27.48;22.75;;;9.40;99.90;;;;;;5069687;28;20021;-74
2022/11/05 09:57:38;;;;;;;27.90;22.98;;;9.30;99.90;;;;;;5063881;28;20032;-74
2022/11/05 10:00:07;;;;;;;29.67;23.55;;;9.40;99.90;;;;;;5071944;28;20025;-74
2022/11/05 10:02:40;;;;;;;26.60;22.73;;;9.40;99.90;;;;;;5063339;28;20017;-75
2022/11/05 10:05:10;;;;;;;27.40;21.38;;;9.50;99.90;;;;;;5067599;28;20024;-74
2022/11/05 10:07:49;;;;;;;28.52;22.13;;;9.50;99.90;;;;;;5066506;28;20126;-76
2022/11/05 10:10:25;;;;;;;27.33;22.70;;;9.60;99.90;;;;;;5055936;28;20025;-75
2022/11/05 10:12:57;;;;;;;28.52;21.45;;;9.70;99.90;;;;;;5067517;28;20032;-75
2022/11/05 10:16:09;;;;;;;30.17;21.15;;;9.70;99.90;;;;;;5052829;28;20031;-75
2022/11/05 10:18:45;;;;;;;27.55;19.50;;;9.70;99.90;;;;;;5045381;28;20068;-77
2022/11/05 10:21:17;;;;;;;23.75;19.85;;;9.80;99.90;;;;;;5067624;28;20029;-75
2022/11/05 10:23:43;;;;;;;27.60;19.77;;;9.90;99.90;;;;;;5072595;28;20024;-74
2022/11/05 10:26:22;;;;;;;25.48;20.30;;;10.00;99.90;;;;;;5060412;28;20051;-74
2022/11/05 10:28:49;;;;;;;26.88;19.67;;;9.80;99.90;;;;;;5058643;28;20487;-75
2022/11/05 10:31:19;;;;;;;26.10;19.58;;;9.70;99.90;;;;;;5066402;28;20033;-75
2022/11/05 10:33:45;;;;;;;26.55;18.98;;;9.90;99.90;;;;;;5053101;28;20029;-75
2022/11/05 10:36:29;;;;;;;24.33;19.00;;;9.80;99.90;;;;;;5059984;28;20536;-74
2022/11/05 10:39:09;;;;;;;26.35;19.63;;;9.80;99.90;;;;;;5060108;28;20027;-74
2022/11/05 10:42:02;;;;;;;25.08;18.35;;;10.00;99.90;;;;;;5060699;28;20029;-75
2022/11/05 10:44:27;;;;;;;26.30;18.75;;;9.90;99.90;;;;;;5058188;28;20025;-76
2022/11/05 10:47:38;;;;;;;22.50;17.67;;;9.80;99.90;;;;;;5066597;28;20037;-74
2022/11/05 10:50:11;;;;;;;22.17;18.23;;;10.00;99.90;;;;;;5014375;28;20119;-75
2022/11/05 10:52:48;;;;;;;23.80;19.02;;;10.00;99.90;;;;;;5011461;28;20396;-74
2022/11/05 10:55:20;;;;;;;22.58;18.10;;;10.00;99.90;;;;;;5043637;28;20086;-75
2022/11/05 10:57:48;;;;;;;23.85;18.40;;;10.00;99.90;;;;;;5047971;28;20487;-75
2022/11/05 11:00:14;;;;;;;23.25;17.90;;;10.20;99.90;;;;;;5070058;28;20024;-75
2022/11/05 11:02:44;;;;;;;23.90;18.33;;;10.20;99.90;;;;;;5070368;28;20518;-74
2022/11/05 11:05:17;;;;;;;22.75;18.35;;;10.30;99.90;;;;;;5064084;28;20039;-74
2022/11/05 11:07:43;;;;;;;24.40;18.15;;;10.60;99.90;;;;;;5065031;28;20025;-74
2022/11/05 11:10:20;;;;;;;24.23;18.15;;;10.60;99.90;;;;;;5075433;28;20047;-75
2022/11/05 11:12:48;;;;;;;24.20;17.17;;;10.50;99.90;;;;;;5057798;28;20532;-75
2022/11/05 11:15:18;;;;;;;24.10;17.98;;;10.70;99.90;;;;;;5052826;28;20029;-75
2022/11/05 11:17:44;;;;;;;25.17;16.85;;;10.60;99.90;;;;;;5065150;28;20044;-76
2022/11/05 11:20:30;;;;;;;20.90;16.45;;;10.70;99.90;;;;;;5052698;28;20029;-75
2022/11/05 11:23:11;;;;;;;23.05;17.23;;;10.90;99.90;;;;;;5058086;28;20024;-75
2022/11/05 11:25:48;;;;;;;22.85;16.73;;;11.10;99.90;;;;;;5058204;28;20036;-75
2022/11/05 11:28:23;;;;;;;25.40;16.45;;;11.10;99.90;;;;;;5063244;28;20387;-74
2022/11/05 11:30:51;;;;;;;21.85;17.60;;;11.10;99.90;;;;;;5066044;28;20033;-75
2022/11/05 11:33:22;;;;;;;22.83;17.35;;;11.00;99.90;;;;;;5063464;28;20029;-75
2022/11/05 11:35:47;;;;;;;21.48;15.75;;;11.00;99.90;;;;;;5058970;28;20025;-75
2022/11/05 11:38:16;;;;;;;20.58;14.80;;;11.10;99.90;;;;;;5060694;28;20040;-75
2022/11/05 11:40:41;;;;;;;17.85;15.07;;;11.10;99.90;;;;;;5065932;28;20104;-75
2022/11/05 11:43:26;;;;;;;21.48;15.02;;;11.20;99.90;;;;;;5057952;28;20099;-75
2022/11/05 11:45:54;;;;;;;19.75;14.80;;;11.20;99.90;;;;;;5060077;28;20486;-75
2022/11/05 11:48:27;;;;;;;19.95;13.45;;;11.30;99.90;;;;;;5066763;28;20037;-75
2022/11/05 11:50:54;;;;;;;17.27;12.70;;;11.50;99.90;;;;;;5059260;28;20041;-75
2022/11/05 11:53:19;;;;;;;18.65;13.68;;;11.30;99.90;;;;;;5058735;28;20025;-75
2022/11/05 11:55:54;;;;;;;18.00;12.43;;;11.30;99.90;;;;;;5065442;28;20027;-75
2022/11/05 11:58:21;;;;;;;18.92;13.25;;;11.40;99.90;;;;;;5057236;28;20035;-75
2022/11/05 12:00:55;;;;;;;17.52;12.75;;;11.40;99.90;;;;;;5061752;28;20496;-75
2022/11/05 12:03:32;;;;;;;23.23;13.13;;;11.40;99.90;;;;;;5057143;28;20017;-75
2022/11/05 12:06:08;;;;;;;16.80;12.27;;;11.30;99.90;;;;;;5059133;28;20104;-75
2022/11/05 12:08:37;;;;;;;;;;;11.20;99.90;;;;;;5056559;28;20405;-75
2022/11/05 12:11:41;;;;;;;19.70;12.60;;;10.90;99.90;;;;;;5064366;28;20270;-75
2022/11/05 12:14:25;;;;;;;16.80;11.82;;;11.00;99.90;;;;;;5068680;28;20517;-75
2022/11/05 12:17:28;;;;;;;15.55;11.80;;;11.10;99.90;;;;;;5081800;28;20474;-74
2022/11/05 12:20:15;;;;;;;16.65;12.93;;;11.10;99.90;;;;;;5054421;28;20075;-74
2022/11/05 12:23:00;;;;;;;16.52;12.13;;;11.00;99.90;;;;;;5065119;28;20032;-75
2022/11/05 12:25:49;;;;;;;18.88;12.75;;;10.90;99.90;;;;;;5064715;28;20032;-74
2022/11/05 12:28:31;;;;;;;19.23;13.25;;;10.80;99.90;;;;;;5068801;28;20488;-75
2022/11/05 12:31:24;;;;;;;14.75;9.75;;;10.70;99.90;;;;;;5071905;28;20437;-75
2022/11/05 12:34:04;;;;;;;13.02;7.43;;;10.60;99.90;;;;;;5051556;28;20087;-75
2022/11/05 12:36:39;;;;;;;8.75;6.10;;;10.80;99.90;;;;;;5059656;28;20097;-75
2022/11/05 12:39:30;;;;;;;10.75;6.65;;;10.80;99.90;;;;;;5072205;28;20440;-75
2022/11/05 12:42:01;;;;;;;11.57;6.13;;;10.40;99.90;;;;;;5062675;28;20023;-77
2022/11/05 12:44:33;;;;;;;8.48;4.60;;;10.70;99.90;;;;;;5061238;28;20032;-74
2022/11/05 12:47:27;;;;;;;8.45;4.80;;;10.70;99.90;;;;;;5056300;28;20151;-75
2022/11/05 12:50:11;;;;;;;9.77;4.93;;;10.70;99.90;;;;;;5060715;28;20036;-74
2022/11/05 12:53:07;;;;;;;9.32;5.20;;;10.70;99.90;;;;;;5068697;28;20032;-75
2022/11/05 12:55:38;;;;;;;9.13;5.15;;;11.00;99.90;;;;;;5073490;28;20031;-75
2022/11/05 12:58:34;;;;;;;8.55;5.60;;;11.20;99.90;;;;;;5073512;28;20033;-75
2022/11/05 13:01:11;;;;;;;8.57;5.50;;;11.20;99.90;;;;;;5060822;28;20037;-77
2022/11/05 13:03:49;;;;;;;8.23;5.57;;;11.40;99.90;;;;;;5077978;28;20025;-76
2022/11/05 13:06:24;;;;;;;8.82;5.38;;;11.60;99.90;;;;;;5069578;28;20025;-75
2022/11/05 13:09:16;;;;;;;7.60;5.13;;;11.70;99.90;;;;;;5071763;28;20017;-75
2022/11/05 13:11:57;;;;;;;10.55;5.65;;;11.50;99.90;;;;;;5074318;28;20078;-75
2022/11/05 13:14:27;;;;;;;7.88;5.20;;;11.20;99.90;;;;;;5060716;28;20027;-75
2022/11/05 13:17:03;;;;;;;9.82;6.10;;;11.20;99.90;;;;;;5074989;28;20061;-75
2022/11/05 13:19:55;;;;;;;9.48;5.90;;;10.90;99.90;;;;;;5070229;28;20455;-75
2022/11/05 13:22:28;;;;;;;10.20;6.93;;;10.90;99.90;;;;;;5054386;28;20036;-75
2022/11/05 13:24:59;;;;;;;11.88;6.95;;;10.80;99.90;;;;;;5063397;28;20389;-75
2022/11/05 13:28:00;;;;;;;9.13;6.43;;;10.80;99.90;;;;;;5060029;28;20021;-75
2022/11/05 13:30:37;;;;;;;13.20;7.03;;;11.00;99.90;;;;;;5061227;28;20029;-75
2022/11/05 13:33:11;;;;;;;9.90;7.57;;;10.90;99.90;;;;;;5055411;28;20053;-75
2022/11/05 13:38:58;;;;;;;;;;;10.90;99.90;;;;;;5048936;28;20068;-74
2022/11/05 13:41:42;;;;;;;9.77;7.15;;;10.80;99.90;;;;;;5064717;28;20283;-75